Time;durP1;ratioP1;P1;durP2;ratioP2;P2;SDS_P1;SDS_P2;PMS_P1;PMS_P2;Temp;Humidity;BMP_temperature;BMP_pressure;BME280_temperature;BME280_humidity;BME280_pressure;Samples;Min_cycle;Max_cycle;Signal;HPM_P1;HPM_P2
2023/05/28 00:01:19;;;;;;;9.90;4.40;;;;;;;20.57;55.95;101105.09;5031382;28;20448;-78
2023/05/28 00:03:44;;;;;;;8.13;4.47;;;;;;;20.49;55.87;101100.84;5031092;28;20382;-78
2023/05/28 00:06:10;;;;;;;7.67;4.27;;;;;;;20.40;56.51;101104.88;5030657;28;20382;-77
2023/05/28 00:08:37;;;;;;;8.27;4.20;;;;;;;20.34;56.39;101100.41;5031217;28;20524;-78
2023/05/28 00:11:03;;;;;;;9.20;4.50;;;;;;;20.37;56.04;101108.84;5030083;28;20777;-79
2023/05/28 00:13:29;;;;;;;10.13;4.53;;;;;;;20.32;56.01;101103.31;5031103;28;20453;-78
2023/05/28 00:15:55;;;;;;;9.90;4.82;;;;;;;20.34;56.02;101101.22;5031111;28;20440;-78
2023/05/28 00:18:21;;;;;;;7.80;4.40;;;;;;;20.33;56.18;101104.13;5032553;28;20863;-78
2023/05/28 00:20:48;;;;;;;12.48;4.82;;;;;;;20.38;55.88;101112.34;5030032;28;20377;-78
2023/05/28 00:23:14;;;;;;;11.68;4.32;;;;;;;20.40;55.76;101108.41;5031764;28;20386;-78
2023/05/28 00:25:40;;;;;;;8.37;3.93;;;;;;;20.41;55.62;101126.19;5031239;28;20378;-78
2023/05/28 00:28:05;;;;;;;8.77;3.70;;;;;;;20.30;55.85;101113.47;5031046;28;20517;-78
2023/05/28 00:30:31;;;;;;;10.98;3.70;;;;;;;20.33;55.82;101114.88;5031019;28;20410;-78
2023/05/28 00:32:56;;;;;;;8.20;3.63;;;;;;;20.29;55.79;101108.31;5030150;28;20379;-77
2023/05/28 00:35:22;;;;;;;7.13;3.57;;;;;;;20.36;55.45;101098.28;5032086;28;20379;-77
2023/05/28 00:37:47;;;;;;;7.15;3.38;;;;;;;20.36;55.24;101103.69;5035379;28;20382;-77
2023/05/28 00:40:16;;;;;;;7.07;3.53;;;;;;;20.41;55.18;101104.66;5035026;28;20385;-77
2023/05/28 00:42:41;;;;;;;8.07;3.40;;;;;;;20.37;55.29;101100.75;5035443;28;20855;-77
2023/05/28 00:45:07;;;;;;;7.87;3.73;;;;;;;20.37;55.09;101095.38;5035467;28;20418;-78
2023/05/28 00:47:33;;;;;;;8.70;3.45;;;;;;;20.51;54.91;101097.91;5034907;28;20379;-78
2023/05/28 00:50:00;;;;;;;8.20;3.47;;;;;;;20.61;54.43;101096.34;5034744;28;20407;-77
2023/05/28 00:52:27;;;;;;;5.90;3.28;;;;;;;20.55;54.47;101091.03;5034776;28;20389;-77
2023/05/28 00:54:55;;;;;;;7.05;3.28;;;;;;;20.47;54.68;101100.22;5035074;28;20378;-78
2023/05/28 00:57:23;;;;;;;7.68;3.42;;;;;;;20.46;54.60;101101.28;5036509;28;20398;-79
2023/05/28 00:59:50;;;;;;;8.07;4.13;;;;;;;20.43;54.63;101105.25;5035168;28;20383;-78
2023/05/28 01:02:15;;;;;;;9.38;3.67;;;;;;;20.39;54.83;101104.06;5035248;28;20889;-78
2023/05/28 01:04:41;;;;;;;7.87;3.40;;;;;;;20.52;54.49;101113.03;5033693;28;20417;-78
2023/05/28 01:07:07;;;;;;;6.13;3.50;;;;;;;20.59;54.29;101108.38;5032215;28;20416;-78
2023/05/28 01:09:32;;;;;;;5.37;3.60;;;;;;;20.57;54.42;101110.47;5032067;28;20465;-77
2023/05/28 01:11:59;;;;;;;6.20;3.73;;;;;;;20.55;54.34;101108.00;5033017;28;20378;-78
2023/05/28 01:14:25;;;;;;;7.72;3.67;;;;;;;20.62;54.32;101106.06;5034602;28;20428;-78
2023/05/28 01:16:51;;;;;;;11.32;4.68;;;;;;;20.59;54.41;101100.28;5034720;28;20926;-77
2023/05/28 01:19:21;;;;;;;6.65;3.95;;;;;;;20.43;55.01;101094.47;5034000;28;20394;-77
2023/05/28 01:21:56;;;;;;;9.32;4.22;;;;;;;20.47;54.88;101088.63;5033730;28;20370;-77
2023/05/28 01:24:22;;;;;;;7.93;4.07;;;;;;;20.56;54.76;101081.88;5035125;28;20382;-78
2023/05/28 01:26:50;;;;;;;10.03;3.97;;;;;;;20.49;54.76;101073.06;5035333;28;20378;-78
2023/05/28 01:29:18;;;;;;;7.85;3.83;;;;;;;20.58;54.71;101079.78;5033982;28;20886;-78
2023/05/28 01:31:44;;;;;;;8.50;4.23;;;;;;;20.62;54.60;101078.34;5034774;28;20394;-77
2023/05/28 01:34:11;;;;;;;9.07;3.97;;;;;;;20.65;54.60;101079.72;5034436;28;20395;-78
2023/05/28 01:36:54;;;;;;;9.20;3.72;;;;;;;20.54;54.79;101070.53;5055196;28;20534;-78
2023/05/28 01:39:21;;;;;;;8.52;4.18;;;;;;;20.44;55.26;101081.84;5047474;28;20447;-78
2023/05/28 01:41:48;;;;;;;8.93;4.07;;;;;;;20.39;55.30;101068.22;5040296;28;20444;-78
2023/05/28 01:44:16;;;;;;;7.65;4.00;;;;;;;20.33;55.78;101080.75;5035802;28;20385;-79
2023/05/28 01:46:45;;;;;;;8.50;3.90;;;;;;;20.37;55.58;101063.06;5033366;28;20517;-80
2023/05/28 01:49:10;;;;;;;8.55;4.00;;;;;;;20.34;55.72;101068.09;5033817;28;20389;-79
2023/05/28 01:51:36;;;;;;;7.88;4.10;;;;;;;20.37;55.81;101076.53;5035869;28;20402;-78
2023/05/28 01:54:02;;;;;;;7.22;4.40;;;;;;;20.34;55.87;101079.66;5037514;28;20732;-78
2023/05/28 01:56:28;;;;;;;8.03;4.40;;;;;;;20.40;55.80;101088.72;5036768;28;20385;-79
2023/05/28 01:58:53;;;;;;;7.55;5.03;;;;;;;20.30;55.94;101075.78;5035108;28;20402;-79
2023/05/28 02:01:28;;;;;;;10.80;5.33;;;;;;;20.24;56.48;101079.41;5035751;28;20913;-79
2023/05/28 02:03:57;;;;;;;10.75;5.18;;;;;;;20.19;56.40;101073.88;5037286;28;20796;-80
2023/05/28 02:06:24;;;;;;;12.05;5.53;;;;;;;20.20;56.53;101067.41;5045019;28;20985;-78
2023/05/28 02:08:51;;;;;;;9.05;4.90;;;;;;;20.22;56.52;101076.09;5044587;28;20386;-80
2023/05/28 02:11:16;;;;;;;8.85;4.97;;;;;;;20.22;56.41;101076.94;5041161;28;20481;-78
2023/05/28 02:13:42;;;;;;;9.95;5.28;;;;;;;20.24;56.48;101084.78;5043293;28;20885;-80
2023/05/28 02:16:08;;;;;;;8.60;5.30;;;;;;;20.14;57.09;101090.69;5044216;28;20391;-79
2023/05/28 02:18:36;;;;;;;12.38;5.82;;;;;;;20.04;57.48;101084.97;5045230;28;20469;-79
2023/05/28 02:21:01;;;;;;;9.35;5.40;;;;;;;19.98;57.60;101083.19;5043647;28;20365;-79
2023/05/28 02:23:27;;;;;;;13.85;5.97;;;;;;;19.90;57.90;101092.38;5044542;28;20379;-79
2023/05/28 02:25:52;;;;;;;12.47;6.40;;;;;;;19.89;57.88;101084.53;5043559;28;20387;-79
2023/05/28 02:28:18;;;;;;;12.23;5.87;;;;;;;19.87;57.91;101079.38;5042710;28;20680;-78
2023/05/28 02:30:44;;;;;;;11.70;5.53;;;;;;;19.91;57.92;101082.44;5040369;28;20433;-79
2023/05/28 02:33:09;;;;;;;11.67;6.17;;;;;;;19.85;58.26;101079.59;5044016;28;20798;-78
2023/05/28 02:35:35;;;;;;;11.17;5.63;;;;;;;19.86;58.06;101069.66;5042148;28;20370;-78
2023/05/28 02:38:01;;;;;;;9.93;5.78;;;;;;;19.81;58.16;101075.72;5046078;28;20447;-79
2023/05/28 02:40:26;;;;;;;9.37;6.07;;;;;;;19.86;58.34;101086.63;5044487;28;20375;-79
2023/05/28 02:42:52;;;;;;;12.43;6.20;;;;;;;19.90;58.08;101080.78;5042590;28;21189;-78
2023/05/28 02:45:17;;;;;;;11.30;6.43;;;;;;;19.87;58.28;101076.69;5041313;28;20462;-78
2023/05/28 02:47:43;;;;;;;10.80;6.17;;;;;;;19.95;57.96;101079.09;5043477;28;20399;-78
2023/05/28 02:50:09;;;;;;;13.30;6.47;;;;;;;19.90;58.11;101080.78;5042616;28;20526;-78
2023/05/28 02:52:34;;;;;;;11.00;6.57;;;;;;;19.82;58.53;101077.34;5043427;28;20850;-78
2023/05/28 02:55:00;;;;;;;14.47;6.80;;;;;;;19.77;58.57;101065.59;5041614;28;20362;-78
2023/05/28 02:57:26;;;;;;;11.90;6.05;;;;;;;19.79;58.62;101085.03;5042821;28;20374;-78
2023/05/28 02:59:51;;;;;;;14.30;6.40;;;;;;;19.80;58.61;101087.50;5018582;28;20415;-78
2023/05/28 03:02:16;;;;;;;10.40;6.63;;;;;;;19.80;58.48;101079.44;5011015;28;20557;-78
2023/05/28 03:04:42;;;;;;;11.00;6.10;;;;;;;19.77;58.52;101089.81;5011862;28;20464;-78
2023/05/28 03:07:08;;;;;;;11.23;6.45;;;;;;;19.82;58.66;101093.47;5011040;28;20400;-77
2023/05/28 03:09:37;;;;;;;9.50;5.90;;;;;;;19.82;58.36;101084.59;5010649;28;20823;-78
2023/05/28 03:12:02;;;;;;;13.35;5.97;;;;;;;19.78;58.52;101094.97;5010546;28;20416;-78
2023/05/28 03:14:28;;;;;;;11.93;6.20;;;;;;;19.68;58.99;101100.84;5018740;28;20455;-78
2023/05/28 03:16:53;;;;;;;10.17;6.00;;;;;;;19.66;59.03;101092.19;5014517;28;20869;-78
2023/05/28 03:19:19;;;;;;;12.43;6.00;;;;;;;19.60;59.23;101098.41;5010281;28;20896;-77
2023/05/28 03:21:44;;;;;;;13.52;6.85;;;;;;;19.47;59.91;101106.63;5010065;28;20372;-78
2023/05/28 03:24:10;;;;;;;9.30;6.13;;;;;;;19.41;60.04;101115.53;5010966;28;20541;-78
2023/05/28 03:26:36;;;;;;;9.95;6.30;;;;;;;19.40;60.31;101119.28;5012394;28;20457;-78
2023/05/28 03:29:01;;;;;;;17.60;6.88;;;;;;;19.34;60.42;101110.22;5011851;28;20372;-78
2023/05/28 03:31:29;;;;;;;12.37;6.40;;;;;;;19.37;60.39;101111.66;5012019;28;20920;-78
2023/05/28 03:33:55;;;;;;;9.68;6.28;;;;;;;19.49;60.09;101113.41;5011576;28;20379;-78
2023/05/28 03:36:22;;;;;;;12.80;6.63;;;;;;;19.62;59.85;101125.09;5010368;28;20406;-77
2023/05/28 03:38:47;;;;;;;12.00;6.70;;;;;;;19.59;59.89;101125.53;5021229;28;20380;-77
2023/05/28 03:41:12;;;;;;;10.93;6.13;;;;;;;19.54;60.11;101112.75;5010994;28;20686;-76
2023/05/28 03:43:38;;;;;;;13.23;6.50;;;;;;;19.50;60.13;101108.88;5009898;28;20379;-77
2023/05/28 03:46:03;;;;;;;10.43;6.53;;;;;;;19.51;60.22;101112.38;5017842;28;20404;-77
2023/05/28 03:48:29;;;;;;;13.53;6.47;;;;;;;19.55;60.19;101117.09;5032394;28;20382;-78
2023/05/28 03:50:55;;;;;;;13.80;7.77;;;;;;;19.48;60.49;101111.78;5029932;28;20413;-79
2023/05/28 03:53:21;;;;;;;16.53;8.30;;;;;;;19.44;60.62;101113.22;5030916;28;20374;-81
2023/05/28 03:55:46;;;;;;;20.30;8.17;;;;;;;19.54;60.44;101110.06;5019001;28;20403;-78
2023/05/28 03:58:14;;;;;;;13.63;7.47;;;;;;;19.62;60.33;101112.47;5011128;28;20466;-79
2023/05/28 04:00:40;;;;;;;15.20;7.28;;;;;;;19.66;60.20;101110.16;5014830;28;20386;-79
2023/05/28 04:03:05;;;;;;;12.20;7.13;;;;;;;19.66;60.26;101110.16;5031839;28;20781;-79
2023/05/28 04:05:33;;;;;;;14.90;7.30;;;;;;;19.75;60.17;101110.75;5042256;28;20417;-79
2023/05/28 04:07:59;;;;;;;12.57;6.85;;;;;;;19.77;60.08;101108.66;5040942;28;20366;-78
2023/05/28 04:10:24;;;;;;;10.43;6.23;;;;;;;19.89;59.62;101106.88;5042668;28;20542;-79
2023/05/28 04:12:50;;;;;;;14.10;6.93;;;;;;;19.89;59.86;101120.34;5044421;28;20738;-78
2023/05/28 04:15:15;;;;;;;12.13;5.97;;;;;;;19.75;60.13;101110.75;5040006;28;20858;-77
2023/05/28 04:17:41;;;;;;;12.75;6.70;;;;;;;19.68;60.54;101111.59;5042873;28;20436;-77
2023/05/28 04:20:06;;;;;;;12.50;6.53;;;;;;;19.64;60.66;101121.16;5044409;28;20371;-77
2023/05/28 04:22:33;;;;;;;12.30;6.05;;;;;;;19.64;60.86;101121.16;5044432;28;20711;-77
2023/05/28 04:24:59;;;;;;;10.20;6.18;;;;;;;19.60;61.03;101116.44;5041458;28;20393;-78
2023/05/28 04:27:25;;;;;;;11.07;6.13;;;;;;;19.55;61.25;101108.19;5025056;28;20858;-77
2023/05/28 04:29:52;;;;;;;12.43;6.50;;;;;;;19.62;60.99;101100.91;5025234;28;20398;-79
2023/05/28 04:32:17;;;;;;;9.70;6.47;;;;;;;19.65;60.66;101112.03;5023413;28;20368;-78
2023/05/28 04:34:43;;;;;;;13.27;7.27;;;;;;;19.67;60.89;101120.69;5024634;28;20386;-77
2023/05/28 04:37:08;;;;;;;12.23;6.15;;;;;;;19.74;60.69;101126.06;5022455;28;20380;-77
2023/05/28 04:39:34;;;;;;;13.13;6.97;;;;;;;19.76;60.68;101123.16;5024058;28;20386;-78
2023/05/28 04:42:03;;;;;;;10.70;7.35;;;;;;;19.89;60.45;101120.34;5024690;28;20773;-78
2023/05/28 04:44:30;;;;;;;12.05;7.55;;;;;;;19.85;60.54;101117.25;5023684;28;20380;-77
2023/05/28 04:46:58;;;;;;;13.65;7.22;;;;;;;19.98;60.27;101119.00;5022431;28;20932;-77
2023/05/28 04:49:24;;;;;;;15.32;7.47;;;;;;;20.10;59.95;101116.41;5021869;28;20384;-77
2023/05/28 04:51:50;;;;;;;15.75;7.53;;;;;;;20.19;59.78;101116.94;5023170;28;20425;-78
2023/05/28 04:54:15;;;;;;;12.23;7.50;;;;;;;20.36;59.37;101123.34;5024488;28;20422;-77
2023/05/28 04:56:41;;;;;;;14.48;7.53;;;;;;;20.49;59.17;101114.31;5022676;28;20403;-77
2023/05/28 04:59:09;;;;;;;13.80;7.43;;;;;;;20.44;59.14;101114.16;5022337;28;20366;-77
2023/05/28 05:01:36;;;;;;;15.15;7.80;;;;;;;20.43;59.00;101112.50;5020453;28;20885;-78
2023/05/28 05:04:02;;;;;;;15.55;8.98;;;;;;;20.46;59.04;101116.63;5022497;28;20388;-78
2023/05/28 05:06:27;;;;;;;14.40;8.13;;;;;;;20.32;59.22;101107.88;5025607;28;20719;-79
2023/05/28 05:08:53;;;;;;;17.00;8.37;;;;;;;20.30;59.34;101113.47;5041017;28;20389;-78
2023/05/28 05:11:20;;;;;;;15.00;8.63;;;;;;;20.33;59.35;101112.19;5023789;28;20406;-78
2023/05/28 05:13:45;;;;;;;11.98;8.27;;;;;;;20.41;58.97;101106.53;5026371;28;20411;-78
2023/05/28 05:16:11;;;;;;;12.00;8.27;;;;;;;20.42;59.14;101114.38;5020684;28;20879;-78
2023/05/28 05:18:36;;;;;;;14.07;9.20;;;;;;;20.48;59.22;101126.13;5024526;28;20411;-78
2023/05/28 05:21:02;;;;;;;17.07;9.27;;;;;;;20.44;59.18;101123.06;5021912;28;20374;-78
2023/05/28 05:23:27;;;;;;;15.57;9.57;;;;;;;20.52;58.82;101127.31;5024043;28;20392;-78
2023/05/28 05:25:53;;;;;;;13.63;8.57;;;;;;;20.74;58.36;101121.47;5023746;28;20384;-78
2023/05/28 05:28:18;;;;;;;16.20;8.30;;;;;;;20.86;58.01;101130.44;5023985;28;20854;-78
2023/05/28 05:30:44;;;;;;;13.57;8.27;;;;;;;21.02;57.62;101131.66;5023646;28;20526;-81
2023/05/28 05:33:09;;;;;;;14.73;8.20;;;;;;;21.10;57.31;101122.41;5039281;28;20462;-76
2023/05/28 05:35:35;;;;;;;12.45;7.57;;;;;;;21.24;56.83;101126.56;5025612;28;20453;-79
2023/05/28 05:38:00;;;;;;;14.03;7.83;;;;;;;21.30;56.58;101125.66;5025123;28;20417;-77
2023/05/28 05:40:27;;;;;;;11.93;7.43;;;;;;;21.35;56.36;101124.94;5027146;28;20405;-78
2023/05/28 05:42:53;;;;;;;12.70;7.40;;;;;;;21.42;56.43;101132.94;5023897;28;20415;-78
2023/05/28 05:45:18;;;;;;;11.30;7.27;;;;;;;21.31;56.60;101135.38;5025796;28;20719;-79
2023/05/28 05:47:44;;;;;;;14.73;7.30;;;;;;;21.11;56.88;101132.97;5019105;28;20471;-78
2023/05/28 05:50:12;;;;;;;12.25;7.30;;;;;;;20.91;57.58;101125.19;5026183;28;20419;-78
2023/05/28 05:52:39;;;;;;;13.38;7.60;;;;;;;21.16;57.07;101126.91;5037728;28;20936;-78
2023/05/28 05:55:05;;;;;;;12.50;7.22;;;;;;;21.31;56.62;101127.28;5024204;28;20396;-77
2023/05/28 05:57:32;;;;;;;12.70;7.55;;;;;;;21.39;56.88;101136.91;5022658;28;20450;-78
2023/05/28 05:59:57;;;;;;;13.13;7.00;;;;;;;21.57;56.55;101139.56;5021621;28;20449;-80
2023/05/28 06:02:23;;;;;;;11.87;6.97;;;;;;;21.54;56.30;101139.19;5023756;28;20462;-80
2023/05/28 06:04:49;;;;;;;9.90;6.90;;;;;;;21.50;56.75;101138.00;5024670;28;20380;-78
2023/05/28 06:07:14;;;;;;;15.55;7.28;;;;;;;21.64;56.18;101144.00;5022588;28;20377;-78
2023/05/28 06:09:40;;;;;;;10.07;7.10;;;;;;;21.80;55.75;101142.50;5019906;28;20380;-79
2023/05/28 06:12:06;;;;;;;10.57;6.30;;;;;;;21.88;55.16;101137.56;5021403;28;20397;-79
2023/05/28 06:14:32;;;;;;;10.27;6.55;;;;;;;21.80;55.40;101129.81;5051812;28;20404;-78
2023/05/28 06:16:57;;;;;;;10.07;6.13;;;;;;;21.77;55.45;101147.31;5051931;28;20778;-78
2023/05/28 06:19:23;;;;;;;11.55;6.47;;;;;;;21.93;55.47;101135.00;5050653;28;20876;-79
2023/05/28 06:21:48;;;;;;;15.03;7.90;;;;;;;22.17;55.05;101132.28;5036307;28;20743;-79
2023/05/28 06:24:14;;;;;;;10.87;7.70;;;;;;;22.43;54.77;101127.44;5030178;28;20401;-79
2023/05/28 06:26:40;;;;;;;11.23;6.70;;;;;;;22.44;54.54;101135.31;5008320;28;20399;-79
2023/05/28 06:29:07;;;;;;;10.60;6.40;;;;;;;22.40;54.87;101138.72;5013067;28;20409;-78
2023/05/28 06:31:33;;;;;;;14.82;8.07;;;;;;;22.50;54.90;101137.03;5009312;28;20442;-78
2023/05/28 06:33:58;;;;;;;10.67;6.47;;;;;;;22.49;54.07;101130.00;5009004;28;20429;-78
2023/05/28 06:36:24;;;;;;;11.57;7.13;;;;;;;22.68;53.39;101130.63;5015180;28;20894;-79
2023/05/28 06:38:49;;;;;;;9.23;5.60;;;;;;;22.77;52.95;101141.06;5021665;28;20754;-78
2023/05/28 06:41:15;;;;;;;9.23;6.27;;;;;;;22.88;52.52;101146.41;5012568;28;20712;-79
2023/05/28 06:43:40;;;;;;;9.70;6.13;;;;;;;22.90;52.32;101140.78;5015528;28;20390;-78
2023/05/28 06:46:06;;;;;;;10.43;6.73;;;;;;;22.97;52.02;101137.94;5004334;28;20400;-78
2023/05/28 06:48:31;;;;;;;10.40;6.40;;;;;;;22.80;52.63;101143.31;5016616;28;20396;-79
2023/05/28 06:50:58;;;;;;;31.70;26.60;;;;;;;22.95;52.84;101126.53;5009134;28;20466;-79
2023/05/28 06:53:23;;;;;;;10.77;6.50;;;;;;;23.10;52.12;101129.53;5011915;28;20396;-79
2023/05/28 06:55:49;;;;;;;10.63;6.40;;;;;;;23.03;51.92;101124.28;5035835;28;20390;-78
2023/05/28 06:58:14;;;;;;;9.77;6.50;;;;;;;22.87;52.65;101139.38;5031744;28;20398;-80
2023/05/28 07:00:40;;;;;;;11.67;6.87;;;;;;;22.94;52.60;101136.56;5047860;28;20381;-78
2023/05/28 07:03:06;;;;;;;10.43;6.37;;;;;;;22.93;52.68;101137.59;5031456;28;20403;-81
2023/05/28 07:05:32;;;;;;;9.27;6.35;;;;;;;22.87;52.52;101138.56;5050750;28;20407;-80
2023/05/28 07:07:58;;;;;;;10.18;6.45;;;;;;;22.83;52.67;101143.66;5051214;28;20388;-78
2023/05/28 07:10:23;;;;;;;8.60;6.37;;;;;;;22.84;53.00;101150.69;5040409;28;20417;-80
2023/05/28 07:12:49;;;;;;;10.20;6.50;;;;;;;23.00;52.76;101137.47;5035561;28;20409;-80
2023/05/28 07:15:15;;;;;;;10.23;6.60;;;;;;;23.08;52.71;101140.63;5020543;28;20414;-78
2023/05/28 07:17:41;;;;;;;10.27;6.65;;;;;;;23.02;52.48;101136.13;5052359;28;20386;-79
2023/05/28 07:20:07;;;;;;;10.20;6.47;;;;;;;23.02;52.54;101138.84;5037988;28;20381;-80
2023/05/28 07:22:32;;;;;;;12.00;6.05;;;;;;;22.86;52.07;101140.44;5039649;28;20386;-78
2023/05/28 07:24:58;;;;;;;8.97;6.00;;;;;;;22.75;51.63;101141.31;5049181;28;20401;-77
2023/05/28 07:27:23;;;;;;;12.13;6.37;;;;;;;22.81;52.10;101144.94;5044718;28;20390;-76
2023/05/28 07:29:49;;;;;;;8.63;5.95;;;;;;;22.89;51.39;101141.84;5038641;28;20391;-78
2023/05/28 07:32:15;;;;;;;11.07;6.78;;;;;;;22.95;51.95;101148.16;5037737;28;20390;-79
2023/05/28 07:34:41;;;;;;;11.93;7.00;;;;;;;23.08;52.20;101139.78;5049438;28;20388;-77
2023/05/28 07:37:06;;;;;;;9.43;6.35;;;;;;;23.15;52.18;101143.16;5035006;28;20406;-79
2023/05/28 07:39:32;;;;;;;10.23;6.97;;;;;;;23.14;52.24;101136.13;5040157;28;20465;-78
2023/05/28 07:41:57;;;;;;;12.85;6.90;;;;;;;23.14;52.41;101135.28;5039171;28;20460;-77
2023/05/28 07:44:23;;;;;;;12.07;6.87;;;;;;;23.19;52.32;101132.66;5047005;28;21937;-77
2023/05/28 07:46:48;;;;;;;10.67;6.97;;;;;;;23.21;52.25;101128.69;5038080;28;20826;-78
2023/05/28 07:49:14;;;;;;;14.65;7.30;;;;;;;23.20;52.43;101127.03;5035132;28;20531;-79
2023/05/28 07:51:40;;;;;;;9.90;6.27;;;;;;;23.25;52.08;101124.41;5036869;28;20394;-79
2023/05/28 07:54:05;;;;;;;10.10;6.90;;;;;;;23.28;52.12;101123.94;5034473;28;20374;-77
2023/05/28 07:56:31;;;;;;;14.13;7.90;;;;;;;23.34;52.25;101124.81;5033423;28;20383;-77
2023/05/28 07:58:56;;;;;;;13.20;7.00;;;;;;;23.39;52.26;101127.63;5034495;28;20789;-78
2023/05/28 08:01:22;;;;;;;13.80;7.22;;;;;;;23.47;52.13;101118.28;5038322;28;20423;-77
2023/05/28 08:03:51;;;;;;;13.07;7.50;;;;;;;23.54;51.67;101124.34;5042446;28;20379;-78
2023/05/28 08:06:18;;;;;;;13.95;8.02;;;;;;;23.58;51.78;101125.47;5043410;28;20390;-78
2023/05/28 08:08:43;;;;;;;12.25;7.40;;;;;;;23.56;51.58;101122.19;5044209;28;20440;-78
2023/05/28 08:11:13;;;;;;;11.90;7.10;;;;;;;23.56;51.84;101132.22;5045077;28;20400;-79
2023/05/28 08:13:38;;;;;;;12.18;7.32;;;;;;;23.62;51.63;101125.78;5042479;28;20418;-77
2023/05/28 08:16:04;;;;;;;12.90;7.95;;;;;;;23.63;51.62;101122.03;5045057;28;20406;-79
2023/05/28 08:18:30;;;;;;;11.57;7.38;;;;;;;23.65;51.92;101125.31;5034247;28;20760;-77
2023/05/28 08:20:55;;;;;;;11.93;7.40;;;;;;;23.60;51.83;101130.66;5034386;28;20457;-77
2023/05/28 08:23:21;;;;;;;13.37;7.10;;;;;;;23.54;51.86;101129.75;5040064;28;20384;-78
2023/05/28 08:25:46;;;;;;;11.57;7.40;;;;;;;23.57;51.85;101118.44;5046786;28;20390;-78
2023/05/28 08:28:13;;;;;;;16.73;7.60;;;;;;;23.59;51.88;101124.41;5035495;28;20418;-78
2023/05/28 08:30:38;;;;;;;12.13;7.03;;;;;;;23.58;52.04;101128.19;5034738;28;20421;-78
2023/05/28 08:33:04;;;;;;;10.63;6.45;;;;;;;23.69;51.43;101125.63;5041451;28;20386;-78
2023/05/28 08:35:29;;;;;;;13.47;7.20;;;;;;;23.75;51.29;101122.78;5049967;28;20733;-78
2023/05/28 08:37:55;;;;;;;12.83;7.40;;;;;;;23.78;51.28;101118.72;5050279;28;20533;-78
2023/05/28 08:40:20;;;;;;;10.95;7.28;;;;;;;23.85;51.35;101111.28;5046349;28;20427;-78
2023/05/28 08:42:46;;;;;;;11.60;7.07;;;;;;;23.84;51.33;101109.63;5038064;28;20437;-78
2023/05/28 08:45:12;;;;;;;13.63;8.03;;;;;;;23.99;51.06;101112.56;5044604;28;20771;-79
2023/05/28 08:47:37;;;;;;;13.70;7.43;;;;;;;23.97;50.89;101103.88;5041670;28;20928;-79
2023/05/28 08:50:05;;;;;;;17.13;8.70;;;;;;;24.06;50.93;101112.41;5041072;28;20429;-78
2023/05/28 08:52:32;;;;;;;12.55;7.53;;;;;;;24.25;50.48;101107.47;5041340;28;20388;-77
2023/05/28 08:55:01;;;;;;;11.27;7.22;;;;;;;24.39;50.76;101110.63;5047433;28;20469;-78
2023/05/28 08:57:30;;;;;;;13.10;7.63;;;;;;;24.47;50.28;101098.53;5049176;28;20376;-78
2023/05/28 08:59:58;;;;;;;11.63;6.90;;;;;;;24.46;50.25;101100.44;5051871;28;20459;-79
2023/05/28 09:02:25;;;;;;;11.52;7.60;;;;;;;24.55;50.29;101095.41;5038748;28;20386;-79
2023/05/28 09:04:50;;;;;;;15.03;8.27;;;;;;;24.73;49.93;101108.59;5030608;28;20398;-79
2023/05/28 09:07:16;;;;;;;13.27;7.10;;;;;;;24.91;49.54;101101.19;5033889;28;20867;-79
2023/05/28 09:09:43;;;;;;;11.75;7.75;;;;;;;25.04;49.29;101084.50;5034139;28;20374;-79
2023/05/28 09:12:12;;;;;;;10.80;7.25;;;;;;;25.16;49.19;101082.44;5034011;28;20473;-79
2023/05/28 09:14:40;;;;;;;14.35;7.47;;;;;;;25.30;48.91;101088.28;5033911;28;20469;-78
2023/05/28 09:17:08;;;;;;;13.52;8.02;;;;;;;25.39;48.74;101080.50;5031752;28;20392;-78
2023/05/28 09:19:34;;;;;;;13.13;7.80;;;;;;;25.54;48.38;101083.28;5033677;28;20467;-78
2023/05/28 09:22:01;;;;;;;14.20;7.68;;;;;;;25.49;48.20;101083.25;5033224;28;20371;-78
2023/05/28 09:24:27;;;;;;;12.23;7.25;;;;;;;25.52;48.19;101076.50;5033073;28;20378;-78
2023/05/28 09:26:57;;;;;;;11.52;7.35;;;;;;;25.73;47.89;101083.69;5034735;28;20383;-78
2023/05/28 09:29:24;;;;;;;10.88;7.07;;;;;;;25.88;47.46;101084.88;5034190;28;20406;-77
2023/05/28 09:32:00;;;;;;;10.35;7.25;;;;;;;26.04;46.90;101077.63;5033095;28;20486;-78
2023/05/28 09:34:27;;;;;;;11.25;7.22;;;;;;;26.06;46.91;101072.75;5033086;28;20727;-78
2023/05/28 09:36:52;;;;;;;12.07;7.22;;;;;;;26.07;46.40;101074.38;5032971;28;20549;-78
2023/05/28 09:39:18;;;;;;;10.80;6.68;;;;;;;25.81;46.56;101076.94;5041944;28;20433;-78
2023/05/28 09:41:46;;;;;;;10.60;6.67;;;;;;;26.06;46.39;101067.31;5042432;28;20790;-79
2023/05/28 09:44:12;;;;;;;11.57;6.63;;;;;;;26.03;46.04;101063.22;5044381;28;20426;-79
2023/05/28 09:46:38;;;;;;;11.97;7.40;;;;;;;26.11;46.17;101067.34;5033353;28;20940;-79
2023/05/28 09:49:04;;;;;;;10.80;6.13;;;;;;;26.09;45.23;101069.47;5033649;28;20386;-78
2023/05/28 09:51:31;;;;;;;10.63;6.43;;;;;;;25.84;45.67;101065.56;5033628;28;20414;-78
2023/05/28 09:54:01;;;;;;;10.90;5.60;;;;;;;25.75;45.53;101062.53;5032713;28;20374;-78
2023/05/28 09:56:32;;;;;;;9.43;6.00;;;;;;;26.01;45.40;101059.94;5032031;28;20382;-78
2023/05/28 09:58:59;;;;;;;9.95;6.70;;;;;;;26.31;44.59;101042.94;5031991;28;20856;-78
2023/05/28 10:01:31;;;;;;;9.77;5.82;;;;;;;26.48;43.48;101036.47;5032147;28;20898;-78
2023/05/28 10:04:10;;;;;;;10.65;5.60;;;;;;;26.37;43.68;101038.34;5031193;28;20393;-77
2023/05/28 10:06:38;;;;;;;9.02;5.90;;;;;;;26.39;43.66;101038.06;5030212;28;20411;-77
2023/05/28 10:09:05;;;;;;;9.15;5.85;;;;;;;26.45;44.24;101040.53;5009482;28;20491;-78
2023/05/28 10:11:43;;;;;;;9.65;6.43;;;;;;;26.77;44.08;101038.72;5008917;28;20507;-78
2023/05/28 10:14:10;;;;;;;9.23;5.65;;;;;;;26.84;44.06;101036.53;5026107;28;20442;-80
2023/05/28 10:16:35;;;;;;;9.88;5.65;;;;;;;27.10;43.57;101034.66;5008611;28;20717;-78
2023/05/28 10:19:02;;;;;;;11.03;6.30;;;;;;;27.27;43.39;101031.66;5030892;28;20466;-78
2023/05/28 10:21:28;;;;;;;8.47;5.23;;;;;;;27.45;42.38;101032.97;5030324;28;20366;-78
2023/05/28 10:23:56;;;;;;;9.55;5.18;;;;;;;27.45;42.25;101027.53;5031358;28;20446;-78
2023/05/28 10:26:23;;;;;;;9.70;5.20;;;;;;;27.49;42.09;101022.34;5015397;28;20455;-78
2023/05/28 10:28:56;;;;;;;8.60;4.78;;;;;;;27.60;41.47;101032.97;5032498;28;20414;-79
2023/05/28 10:31:22;;;;;;;8.25;5.03;;;;;;;27.72;41.66;101020.94;5033497;28;20398;-77
2023/05/28 10:33:48;;;;;;;9.43;5.20;;;;;;;27.92;41.07;101015.41;5032547;28;20378;-77
2023/05/28 10:36:15;;;;;;;8.23;4.90;;;;;;;28.30;41.50;101010.31;5031727;28;20385;-77
2023/05/28 10:39:04;;;;;;;7.13;4.67;;;;;;;28.35;40.71;101004.84;5032018;28;20420;-78
2023/05/28 10:41:33;;;;;;;8.13;5.03;;;;;;;28.42;40.47;100993.63;5031497;28;20437;-78
2023/05/28 10:44:06;;;;;;;9.95;4.95;;;;;;;28.74;39.83;101003.25;5031712;28;20386;-78
2023/05/28 10:46:39;;;;;;;8.07;5.20;;;;;;;28.68;39.15;101004.38;5032189;28;20382;-78
2023/05/28 10:49:13;;;;;;;7.22;4.60;;;;;;;28.58;38.40;100997.91;5031355;28;20390;-79
2023/05/28 10:52:00;;;;;;;9.05;4.60;;;;;;;28.66;37.99;100992.94;5031811;28;20437;-77
2023/05/28 10:54:37;;;;;;;8.63;4.40;;;;;;;28.70;37.66;100994.81;5031457;28;20504;-77
2023/05/28 10:57:15;;;;;;;9.07;4.75;;;;;;;28.69;38.12;100992.38;5030946;28;20398;-77
2023/05/28 10:59:51;;;;;;;8.05;4.63;;;;;;;28.70;38.38;100981.19;5031236;28;20417;-76
2023/05/28 11:02:27;;;;;;;8.57;4.68;;;;;;;28.94;38.46;100985.88;5030984;28;20713;-76
2023/05/28 11:04:59;;;;;;;8.70;4.63;;;;;;;29.05;37.90;100986.59;5031090;28;20388;-77
2023/05/28 11:07:41;;;;;;;9.27;4.95;;;;;;;29.04;37.49;100987.69;5030050;28;20448;-75
2023/05/28 11:10:14;;;;;;;8.48;4.60;;;;;;;28.75;37.90;100983.03;5030885;28;20879;-76
2023/05/28 11:12:41;;;;;;;7.38;4.30;;;;;;;28.57;37.22;100984.53;5030513;28;20878;-76
2023/05/28 11:15:10;;;;;;;12.93;5.20;;;;;;;28.39;39.85;101002.34;5031081;28;20413;-77
2023/05/28 11:17:42;;;;;;;15.75;5.57;;;;;;;27.88;43.88;101013.53;5032629;28;20481;-87